Time;durP1;ratioP1;P1;durP2;ratioP2;P2;SDS_P1;SDS_P2;PMS_P1;PMS_P2;Temp;Humidity;BMP_temperature;BMP_pressure;BME280_temperature;BME280_humidity;BME280_pressure;Samples;Min_cycle;Max_cycle;Signal;HPM_P1;HPM_P2
2021/03/11 00:01:27;;;;;;;57.00;29.25;;;;;;;-7.70;68.51;101173.14;1766665;81;21108;-71
2021/03/11 00:03:56;;;;;;;58.05;30.08;;;;;;;-7.70;68.55;101160.32;1758883;81;21140;-71
2021/03/11 00:06:24;;;;;;;55.98;29.02;;;;;;;-7.71;68.58;101168.44;1726065;82;21165;-72
2021/03/11 00:08:52;;;;;;;56.37;28.80;;;;;;;-7.72;68.62;101163.27;1728359;81;21890;-72
2021/03/11 00:11:19;;;;;;;51.87;27.57;;;;;;;-7.73;68.65;101168.83;1766919;80;21070;-72
2021/03/11 00:13:47;;;;;;;54.20;27.37;;;;;;;-7.77;68.77;101177.36;1764986;81;21123;-71
2021/03/11 00:16:14;;;;;;;54.20;28.47;;;;;;;-7.77;68.77;101177.36;1744273;81;21521;-71
2021/03/11 00:18:43;;;;;;;55.50;29.87;;;;;;;-7.79;68.77;101173.50;1745907;81;21149;-70
2021/03/11 00:21:11;;;;;;;54.77;28.12;;;;;;;-7.79;68.80;101174.78;1745096;81;21830;-69
2021/03/11 00:23:38;;;;;;;54.60;28.87;;;;;;;-7.80;68.84;101182.05;1762349;81;21058;-70
2021/03/11 00:26:06;;;;;;;48.75;26.93;;;;;;;-7.83;68.89;101176.87;1767167;81;21148;-69
2021/03/11 00:28:33;;;;;;;51.35;27.10;;;;;;;-7.86;68.90;101170.88;1766056;81;21121;-70
2021/03/11 00:31:01;;;;;;;49.38;28.23;;;;;;;-7.86;69.17;101173.44;1766105;81;21481;-70
2021/03/11 00:33:28;;;;;;;52.23;28.42;;;;;;;-7.86;69.17;101173.44;1765228;81;22570;-70
2021/03/11 00:35:56;;;;;;;58.70;30.65;;;;;;;-7.88;69.07;101168.72;1767158;80;21125;-70
2021/03/11 00:38:23;;;;;;;59.53;31.45;;;;;;;-7.91;69.12;101179.82;1766945;81;21263;-70
2021/03/11 00:40:51;;;;;;;56.40;31.55;;;;;;;-7.91;69.12;101179.82;1767311;80;21053;-70
2021/03/11 00:43:18;;;;;;;57.95;30.50;;;;;;;-7.94;69.11;101175.92;1767308;81;21057;-69
2021/03/11 00:45:47;;;;;;;62.62;32.10;;;;;;;-7.97;69.34;101176.33;1755680;81;22832;-69
2021/03/11 00:48:16;;;;;;;60.90;31.27;;;;;;;-8.01;69.22;101172.01;1743516;82;21224;-71
2021/03/11 00:50:44;;;;;;;67.58;33.75;;;;;;;-8.01;69.22;101172.01;1758536;81;21128;-69
2021/03/11 00:53:12;;;;;;;91.05;39.95;;;;;;;-8.01;69.26;101170.72;1763694;81;21659;-70
2021/03/11 00:55:41;;;;;;;107.05;44.13;;;;;;;-8.03;69.29;101172.00;1746118;81;21089;-72
2021/03/11 00:58:09;;;;;;;114.17;48.45;;;;;;;-8.04;69.32;101171.56;1765524;79;21899;-70
2021/03/11 01:00:38;;;;;;;125.20;50.03;;;;;;;-8.05;69.36;101171.55;1747863;80;21077;-69
2021/03/11 01:03:16;;;;;;;126.40;52.47;;;;;;;-8.01;69.33;101169.02;1887007;76;23244;-71
2021/03/11 01:05:52;;;;;;;141.68;52.90;;;;;;;-8.08;69.37;101163.42;1842302;77;21181;-70
2021/03/11 01:08:21;;;;;;;147.90;53.17;;;;;;;-8.12;69.45;101159.95;1812161;77;22807;-70
2021/03/11 01:10:50;;;;;;;159.80;57.35;;;;;;;-8.12;69.45;101159.95;1843388;77;21129;-70
2021/03/11 01:13:18;;;;;;;150.40;54.33;;;;;;;-8.14;69.49;101153.96;1830518;77;21565;-70
2021/03/11 01:15:46;;;;;;;140.22;52.27;;;;;;;-8.15;69.50;101153.53;1847761;77;21062;-70
2021/03/11 01:18:14;;;;;;;129.93;50.78;;;;;;;-8.15;69.54;101151.39;1834728;77;21042;-70
2021/03/11 01:20:41;;;;;;;137.90;55.92;;;;;;;-8.15;69.57;101156.09;1816595;77;21981;-70
2021/03/11 01:23:09;;;;;;;139.05;53.35;;;;;;;-8.16;69.61;101156.08;1848971;77;21141;-70
2021/03/11 01:25:36;;;;;;;118.90;46.58;;;;;;;-8.16;69.61;101156.08;1827479;77;21050;-70
2021/03/11 01:28:04;;;;;;;121.70;48.90;;;;;;;-8.18;69.63;101149.66;1793034;79;21493;-70
2021/03/11 01:30:33;;;;;;;106.25;44.25;;;;;;;-8.19;69.69;101149.23;1841405;77;21094;-70
2021/03/11 01:33:00;;;;;;;108.20;45.35;;;;;;;-8.19;69.68;101150.94;1848166;77;22111;-70
2021/03/11 01:35:28;;;;;;;101.67;43.90;;;;;;;-8.19;69.71;101152.22;1839709;77;20983;-71
2021/03/11 01:37:57;;;;;;;88.95;39.65;;;;;;;-8.21;69.62;101152.60;1824027;77;21164;-70
2021/03/11 01:40:24;;;;;;;74.42;36.17;;;;;;;-8.24;69.75;101153.44;1832681;77;21046;-70
2021/03/11 01:42:52;;;;;;;62.45;31.85;;;;;;;-8.24;69.75;101153.44;1836009;77;21039;-69
2021/03/11 01:45:20;;;;;;;60.15;29.80;;;;;;;-8.25;69.78;101150.45;1815398;76;22056;-70
2021/03/11 01:47:48;;;;;;;50.78;26.10;;;;;;;-8.26;69.76;101151.72;1843631;77;21196;-71
2021/03/11 01:50:16;;;;;;;43.85;22.95;;;;;;;-8.28;69.79;101149.14;1824720;77;21303;-70
2021/03/11 01:52:44;;;;;;;42.10;22.90;;;;;;;-8.29;69.84;101151.27;1842690;77;21030;-70
2021/03/11 01:55:14;;;;;;;38.08;20.65;;;;;;;-8.29;69.87;101150.41;1817990;77;21413;-71
2021/03/11 01:57:41;;;;;;;40.50;21.15;;;;;;;-8.30;69.93;101150.80;1847824;77;22821;-70
2021/03/11 02:00:11;;;;;;;43.60;22.22;;;;;;;-8.31;70.00;101152.94;1834889;77;21121;-69
2021/03/11 02:02:45;;;;;;;41.65;21.40;;;;;;;-8.33;70.04;101143.10;1831096;77;21089;-70
2021/03/11 02:05:15;;;;;;;42.17;22.15;;;;;;;-8.34;70.06;101145.23;1841407;77;21043;-70
2021/03/11 02:07:42;;;;;;;41.95;21.15;;;;;;;-8.39;70.17;101159.33;1843127;77;21591;-69
2021/03/11 02:10:13;;;;;;;40.55;21.37;;;;;;;-8.39;70.17;101159.33;1841559;77;22132;-69
2021/03/11 02:13:09;;;;;;;35.08;19.48;;;;;;;-8.39;70.20;101158.05;1822633;77;21109;-69
2021/03/11 02:16:04;;;;;;;38.63;20.52;;;;;;;-8.39;70.25;101161.88;1843208;77;21266;-70
2021/03/11 02:18:41;;;;;;;;;;;;;;;-8.39;70.32;101159.75;1842973;77;21122;-70
2021/03/11 02:21:16;;;;;;;37.00;20.10;;;;;;;-8.39;70.38;101158.47;1822397;77;20257;-70
2021/03/11 02:23:54;;;;;;;37.48;20.08;;;;;;;-8.41;70.46;101166.11;1843612;77;22250;-69
2021/03/11 02:26:48;;;;;;;41.00;21.85;;;;;;;-8.42;70.46;101164.39;1836494;77;21249;-69
2021/03/11 02:29:20;;;;;;;39.10;22.17;;;;;;;-8.41;70.50;101160.13;1843827;77;21053;-69
2021/03/11 02:31:47;;;;;;;38.28;20.88;;;;;;;-8.42;70.52;101168.66;1837668;77;21092;-70
2021/03/11 02:34:19;;;;;;;37.60;19.87;;;;;;;-8.44;70.55;101162.24;1841130;77;21180;-72
2021/03/11 02:36:56;;;;;;;41.73;21.15;;;;;;;-8.43;70.58;101164.38;1849528;77;22037;-70
2021/03/11 02:39:27;;;;;;;36.38;18.57;;;;;;;-8.44;70.58;101165.23;1841515;77;21049;-71
2021/03/11 02:41:56;;;;;;;38.65;20.25;;;;;;;-8.46;70.63;101171.63;1839362;77;21055;-70
2021/03/11 02:44:23;;;;;;;34.90;19.73;;;;;;;-8.47;70.65;101170.33;1839163;77;21477;-69
2021/03/11 02:46:53;;;;;;;34.35;18.52;;;;;;;-8.47;70.74;101170.33;1840742;77;21054;-69
2021/03/11 02:49:21;;;;;;;33.75;18.20;;;;;;;-8.48;70.76;101172.03;1843900;77;22047;-70
2021/03/11 02:51:49;;;;;;;33.13;19.17;;;;;;;-8.49;70.82;101174.16;1844107;77;21137;-70
2021/03/11 02:54:17;;;;;;;34.03;19.30;;;;;;;-8.49;70.86;101178.39;1801335;77;21050;-69
2021/03/11 02:56:47;;;;;;;32.25;19.48;;;;;;;-8.49;70.94;101175.83;1835014;77;21059;-71
2021/03/11 02:59:15;;;;;;;36.13;19.20;;;;;;;-8.50;70.96;101173.69;1822227;77;21061;-69
2021/03/11 03:01:43;;;;;;;37.17;20.57;;;;;;;-8.49;71.00;101171.99;1851504;77;22061;-69
2021/03/11 03:04:12;;;;;;;36.53;20.02;;;;;;;-8.50;71.05;101172.41;1825767;77;22223;-69
2021/03/11 03:06:40;;;;;;;38.65;20.85;;;;;;;-8.50;71.09;101177.53;1828288;77;21101;-69
2021/03/11 03:09:08;;;;;;;35.98;20.52;;;;;;;-8.50;71.10;101175.40;1816470;78;21612;-69
2021/03/11 03:11:35;;;;;;;34.33;19.10;;;;;;;-8.50;71.15;101176.68;1821371;77;21066;-70
2021/03/11 03:14:03;;;;;;;34.85;19.35;;;;;;;-8.50;71.13;101177.53;1822897;77;21881;-70
2021/03/11 03:16:31;;;;;;;31.30;18.67;;;;;;;-8.49;71.22;101180.95;1811704;78;21148;-70
2021/03/11 03:18:59;;;;;;;32.88;19.35;;;;;;;-8.49;71.27;101183.52;1818855;77;21176;-70
2021/03/11 03:21:26;;;;;;;31.97;19.05;;;;;;;-8.48;71.30;101187.83;1846895;77;21046;-70
2021/03/11 03:23:54;;;;;;;33.95;17.75;;;;;;;-8.49;71.36;101188.25;1832928;77;21053;-72
2021/03/11 03:26:22;;;;;;;32.23;16.97;;;;;;;-8.49;71.37;101185.69;1826462;77;21970;-71
2021/03/11 03:28:49;;;;;;;27.58;16.52;;;;;;;-8.46;71.38;101187.41;1834095;77;21432;-70
2021/03/11 03:31:17;;;;;;;31.33;17.75;;;;;;;-8.44;71.38;101191.70;1833162;77;21055;-70
2021/03/11 03:33:45;;;;;;;29.02;17.20;;;;;;;-8.43;71.40;101188.72;1837446;77;22560;-70
2021/03/11 03:36:12;;;;;;;28.47;16.73;;;;;;;-8.41;71.40;101189.59;1845132;77;21109;-71
2021/03/11 03:38:40;;;;;;;26.90;15.93;;;;;;;-8.39;71.41;101187.50;1835810;77;21960;-70
2021/03/11 03:41:09;;;;;;;30.65;18.35;;;;;;;-8.40;71.70;101181.91;1847842;77;22577;-70
2021/03/11 03:43:37;;;;;;;30.12;17.20;;;;;;;-8.40;71.70;101181.91;1843961;77;21177;-71
2021/03/11 03:46:14;;;;;;;28.12;16.10;;;;;;;-8.38;71.53;101185.38;1829826;77;21109;-70
2021/03/11 03:48:48;;;;;;;24.63;15.35;;;;;;;-8.37;71.53;101186.23;1812311;77;21184;-71
2021/03/11 03:51:18;;;;;;;29.98;15.10;;;;;;;-8.35;71.53;101183.69;1818117;77;21884;-71
2021/03/11 03:53:52;;;;;;;28.50;14.85;;;;;;;-8.35;71.56;101184.97;1832177;77;21055;-71
2021/03/11 03:56:37;;;;;;;28.62;16.12;;;;;;;-8.33;71.58;101188.36;1782268;79;21146;-71
2021/03/11 03:59:09;;;;;;;27.73;15.93;;;;;;;-8.34;71.63;101190.06;1840240;77;21022;-71
2021/03/11 04:01:42;;;;;;;27.40;15.38;;;;;;;-8.33;71.62;101187.08;1816851;77;21666;-71
2021/03/11 04:04:11;;;;;;;26.90;16.60;;;;;;;-8.33;71.67;101190.92;1823652;77;22052;-71
2021/03/11 04:06:39;;;;;;;25.95;15.98;;;;;;;-8.35;71.65;101196.07;1832106;77;21164;-71
2021/03/11 04:09:12;;;;;;;26.15;15.60;;;;;;;-8.33;71.65;101196.91;1814847;77;21154;-71
2021/03/11 04:11:43;;;;;;;24.77;14.45;;;;;;;-8.32;71.62;101197.34;1817703;77;21113;-71
2021/03/11 04:14:11;;;;;;;26.45;15.35;;;;;;;-8.31;71.66;101197.78;1826604;77;21652;-71
2021/03/11 04:16:41;;;;;;;31.68;18.15;;;;;;;-8.32;71.82;101195.20;1818452;77;21808;-71
2021/03/11 04:19:10;;;;;;;35.43;20.88;;;;;;;-8.30;71.71;101195.65;1823627;77;21487;-71
2021/03/11 04:21:39;;;;;;;37.23;20.35;;;;;;;-8.28;71.75;101202.09;1826835;77;21129;-71
2021/03/11 04:24:09;;;;;;;26.57;15.65;;;;;;;-8.29;71.72;101203.80;1843473;77;21052;-71
2021/03/11 04:26:37;;;;;;;26.55;15.20;;;;;;;-8.29;71.75;101198.67;1799641;79;21051;-71
2021/03/11 04:29:05;;;;;;;24.07;14.33;;;;;;;-8.27;71.79;101199.55;1770101;80;22055;-71
2021/03/11 04:31:33;;;;;;;25.60;14.47;;;;;;;-8.26;71.91;101201.26;1762500;80;21145;-71
2021/03/11 04:34:02;;;;;;;27.82;14.85;;;;;;;-8.23;71.98;101205.55;1773856;80;21551;-71
2021/03/11 04:36:30;;;;;;;27.40;14.15;;;;;;;-8.21;72.04;101201.30;1773702;80;21559;-74
2021/03/11 04:38:57;;;;;;;25.55;14.47;;;;;;;-8.16;72.05;101204.77;1777643;79;21055;-72
2021/03/11 04:41:26;;;;;;;25.62;15.10;;;;;;;-8.07;72.32;101193.33;1774141;80;22062;-71
2021/03/11 04:43:55;;;;;;;30.17;17.32;;;;;;;-8.07;72.32;101193.33;1788302;80;21098;-70
2021/03/11 04:46:23;;;;;;;31.23;18.15;;;;;;;-8.01;72.26;101201.06;1772517;80;21164;-70
2021/03/11 04:48:50;;;;;;;35.65;20.88;;;;;;;-7.94;72.34;101200.70;1765523;80;21157;-69
2021/03/11 04:51:18;;;;;;;56.30;29.52;;;;;;;-7.88;72.33;101205.90;1766266;80;21022;-71
2021/03/11 04:53:48;;;;;;;39.03;21.07;;;;;;;-7.83;72.36;101197.39;1773021;79;21586;-70
2021/03/11 04:56:15;;;;;;;29.92;18.32;;;;;;;-7.79;72.46;101203.42;1791803;80;21528;-70
2021/03/11 04:58:43;;;;;;;26.30;16.15;;;;;;;-7.70;72.49;101212.90;1762408;81;21129;-71
2021/03/11 05:01:13;;;;;;;25.12;15.38;;;;;;;-7.64;72.59;101212.50;1766978;80;21128;-73
2021/03/11 05:03:43;;;;;;;28.07;16.25;;;;;;;-7.52;72.54;101215.62;1745852;80;21118;-70
2021/03/11 05:06:13;;;;;;;22.93;15.00;;;;;;;-7.52;72.54;101215.62;1737185;82;21969;-70
2021/03/11 05:08:40;;;;;;;23.83;14.45;;;;;;;-7.44;72.74;101212.66;1740529;82;21166;-70
2021/03/11 05:11:13;;;;;;;24.18;13.60;;;;;;;-7.34;72.76;101213.58;1760859;81;21173;-68
2021/03/11 05:13:42;;;;;;;22.80;13.38;;;;;;;-7.25;72.83;101211.08;1773250;80;21126;-70
2021/03/11 05:16:11;;;;;;;25.90;13.95;;;;;;;-7.16;72.85;101219.27;1720164;81;21120;-70
2021/03/11 05:18:40;;;;;;;34.10;17.57;;;;;;;-7.10;72.86;101224.45;1758090;81;21886;-71
2021/03/11 05:21:08;;;;;;;89.42;41.35;;;;;;;-7.04;72.86;101224.08;1761324;81;21524;-70
2021/03/11 05:23:37;;;;;;;35.55;19.82;;;;;;;-6.98;72.84;101220.66;1770198;80;21082;-77
2021/03/11 05:26:05;;;;;;;25.92;14.93;;;;;;;-6.79;72.86;101225.47;1777022;80;21481;-72
2021/03/11 05:28:33;;;;;;;26.02;13.95;;;;;;;-6.79;72.86;101225.47;1760410;81;21114;-74
2021/03/11 05:31:00;;;;;;;30.88;14.43;;;;;;;-6.59;72.66;101215.28;1760337;81;22022;-72
2021/03/11 05:33:27;;;;;;;27.58;15.50;;;;;;;-6.59;72.66;101215.28;1760517;81;21220;-74
2021/03/11 05:35:56;;;;;;;26.60;14.75;;;;;;;-6.44;72.80;101229.06;1758047;81;21061;-70
2021/03/11 05:38:24;;;;;;;23.80;14.55;;;;;;;-6.18;72.46;101226.55;1754494;81;21358;-72
2021/03/11 05:40:54;;;;;;;27.45;14.53;;;;;;;-6.18;72.46;101226.55;1752567;81;21103;-71
2021/03/11 05:43:22;;;;;;;31.05;14.70;;;;;;;-6.05;72.58;101219.74;1744986;81;22074;-71
2021/03/11 05:45:49;;;;;;;25.17;14.23;;;;;;;-5.92;72.48;101221.47;1780455;80;21324;-71
2021/03/11 05:48:17;;;;;;;21.68;12.68;;;;;;;-5.82;72.33;101224.45;1742153;82;21063;-71
2021/03/11 05:50:51;;;;;;;22.30;11.85;;;;;;;-5.71;72.09;101220.59;1759905;81;21215;-72
2021/03/11 05:53:21;;;;;;;19.95;11.33;;;;;;;-5.61;72.11;101227.89;1778267;80;21145;-71
2021/03/11 05:55:49;;;;;;;21.77;12.23;;;;;;;-5.51;71.92;101223.17;1731253;82;22053;-71
2021/03/11 05:58:19;;;;;;;20.25;10.90;;;;;;;-5.42;71.73;101228.31;1780516;80;21069;-71
2021/03/11 06:00:47;;;;;;;18.62;10.65;;;;;;;-5.33;71.56;101232.17;1756612;81;21195;-71
2021/03/11 06:03:15;;;;;;;24.18;10.13;;;;;;;-5.22;71.31;101238.17;1762728;80;21071;-71
2021/03/11 06:05:42;;;;;;;12.73;7.60;;;;;;;-5.14;71.07;101240.73;1746772;81;21118;-71
2021/03/11 06:08:10;;;;;;;16.17;9.85;;;;;;;-5.04;70.85;101237.28;1798942;79;22123;-71
2021/03/11 06:10:39;;;;;;;17.42;10.48;;;;;;;-4.94;70.59;101232.97;1782201;80;21093;-71
2021/03/11 06:13:06;;;;;;;19.35;10.90;;;;;;;-4.86;70.32;101240.69;1836055;77;21099;-71
2021/03/11 06:15:37;;;;;;;14.40;8.90;;;;;;;-4.78;70.12;101241.53;1766808;78;21358;-71
2021/03/11 06:18:07;;;;;;;17.05;10.00;;;;;;;-4.69;69.89;101250.09;1838411;77;21034;-71
2021/03/11 06:20:36;;;;;;;20.50;11.00;;;;;;;-4.58;69.69;101246.19;1839844;77;22049;-71
2021/03/11 06:23:04;;;;;;;17.15;8.05;;;;;;;-4.48;69.49;101248.30;1819150;77;21532;-71
2021/03/11 06:25:31;;;;;;;16.25;9.48;;;;;;;-4.40;69.19;101247.41;1816657;77;21108;-71
2021/03/11 06:28:00;;;;;;;18.92;10.15;;;;;;;-4.37;68.82;101241.38;1813117;79;21111;-71
2021/03/11 06:30:37;;;;;;;17.82;10.90;;;;;;;-4.33;68.62;101249.11;1826506;77;21039;-71
2021/03/11 06:33:05;;;;;;;19.27;10.32;;;;;;;-4.24;68.38;101251.23;1836752;77;23454;-71
2021/03/11 06:35:35;;;;;;;16.15;10.40;;;;;;;-4.16;68.10;101257.18;1819304;78;21129;-72
2021/03/11 06:38:02;;;;;;;14.53;8.85;;;;;;;-4.04;67.85;101261.02;1821175;78;21145;-72
2021/03/11 06:40:32;;;;;;;19.65;9.95;;;;;;;-3.94;67.44;101259.23;1818925;77;21170;-71
2021/03/11 06:43:12;;;;;;;18.15;10.30;;;;;;;-3.85;67.14;101262.62;1809764;79;21416;-71
2021/03/11 06:45:40;;;;;;;16.55;9.60;;;;;;;-3.75;66.84;101266.00;1809719;79;22212;-71
2021/03/11 06:48:25;;;;;;;13.90;7.78;;;;;;;-3.65;66.36;101265.50;1809601;78;21081;-71
2021/03/11 06:50:55;;;;;;;19.10;9.63;;;;;;;-3.56;65.80;101268.02;1817977;77;21132;-71
2021/03/11 06:53:22;;;;;;;16.32;9.13;;;;;;;-3.43;65.50;101262.32;1815946;77;21130;-71
2021/03/11 06:55:50;;;;;;;16.32;9.53;;;;;;;-3.36;65.13;101266.14;1815834;79;21119;-71
2021/03/11 06:58:24;;;;;;;19.02;9.18;;;;;;;-3.30;64.85;101266.07;1844844;77;22485;-71
2021/03/11 07:01:05;;;;;;;15.25;9.03;;;;;;;-3.22;64.55;101263.42;1780101;79;21162;-71
2021/03/11 07:03:43;;;;;;;20.17;8.95;;;;;;;-3.18;64.14;101262.55;1743726;82;21548;-72
2021/03/11 07:06:12;;;;;;;11.60;7.65;;;;;;;-3.14;63.79;101263.36;1742491;82;21127;-72
2021/03/11 07:08:49;;;;;;;16.85;8.53;;;;;;;-3.07;63.44;101272.78;1685774;80;21627;-73
2021/03/11 07:11:17;;;;;;;30.57;14.13;;;;;;;-2.99;62.96;101270.55;1774543;80;22075;-72
2021/03/11 07:13:46;;;;;;;17.02;8.85;;;;;;;-2.87;62.40;101263.55;1820136;77;21057;-72
2021/03/11 07:16:23;;;;;;;11.05;6.55;;;;;;;-2.78;61.70;101266.89;1849109;77;21459;-72
2021/03/11 07:19:15;;;;;;;13.98;8.13;;;;;;;-2.69;61.43;101260.77;1848089;77;21109;-72
2021/03/11 07:21:50;;;;;;;13.53;7.85;;;;;;;-2.63;61.05;101262.83;1849193;77;21410;-70
2021/03/11 07:24:35;;;;;;;14.28;7.67;;;;;;;-2.54;60.72;101263.61;1792964;79;23588;-71
2021/03/11 07:27:05;;;;;;;14.28;7.67;;;;;;;-2.45;60.57;101273.85;1837546;77;21110;-71
2021/03/11 07:29:32;;;;;;;11.68;6.25;;;;;;;-2.49;59.10;101270.45;1843723;77;21105;-71
2021/03/11 07:32:06;;;;;;;11.38;6.42;;;;;;;-2.58;58.73;101271.00;1826442;77;21109;-72
2021/03/11 07:34:37;;;;;;;15.15;8.15;;;;;;;-2.68;57.77;101270.23;1815712;79;21034;-71
2021/03/11 07:37:05;;;;;;;13.32;8.03;;;;;;;-2.78;57.95;101275.09;1815731;79;22865;-71
2021/03/11 07:39:40;;;;;;;11.78;6.62;;;;;;;-2.78;58.14;101274.65;1816251;77;21038;-71
2021/03/11 07:42:08;;;;;;;11.60;7.47;;;;;;;-2.68;58.56;101276.27;1815932;79;21274;-73
2021/03/11 07:44:37;;;;;;;16.30;8.23;;;;;;;-2.51;58.63;101272.21;1815642;79;21039;-72
2021/03/11 07:47:06;;;;;;;16.97;8.55;;;;;;;-2.35;58.43;101271.13;1815760;77;21087;-73
2021/03/11 07:49:35;;;;;;;11.30;7.37;;;;;;;-2.22;58.27;101274.45;1812539;77;22978;-71
2021/03/11 07:52:04;;;;;;;13.90;6.47;;;;;;;-2.16;57.46;101273.50;1809585;79;21138;-71
2021/03/11 07:54:33;;;;;;;10.65;6.50;;;;;;;-2.12;56.64;101276.48;1813867;77;21418;-71
2021/03/11 07:57:02;;;;;;;14.38;7.22;;;;;;;-2.14;55.80;101270.45;1815641;78;21674;-72
2021/03/11 07:59:29;;;;;;;11.10;6.50;;;;;;;-2.16;56.09;101279.53;1815666;78;21174;-71
2021/03/11 08:02:09;;;;;;;11.68;7.35;;;;;;;-2.09;55.34;101272.55;1815662;79;22986;-71
2021/03/11 08:04:42;;;;;;;12.88;6.60;;;;;;;-2.10;55.48;101274.72;1817554;77;21054;-71
2021/03/11 08:07:22;;;;;;;7.75;4.65;;;;;;;-2.06;55.10;101278.53;1821976;77;21098;-72
2021/03/11 08:09:58;;;;;;;9.35;5.58;;;;;;;-2.00;54.40;101266.39;1815648;79;21141;-72
2021/03/11 08:12:41;;;;;;;9.90;6.08;;;;;;;-1.97;53.52;101272.82;1816719;77;21042;-72
2021/03/11 08:15:21;;;;;;;9.05;5.03;;;;;;;-1.97;54.01;101272.38;1774493;80;22969;-71
2021/03/11 08:17:50;;;;;;;11.45;6.62;;;;;;;-1.87;53.31;101280.44;1786310;79;21159;-71
2021/03/11 08:20:24;;;;;;;11.53;6.45;;;;;;;-1.84;52.70;101278.23;1815670;79;21065;-70
2021/03/11 08:22:57;;;;;;;10.20;5.37;;;;;;;-1.76;52.62;101275.10;1827838;77;27420;-72
2021/03/11 08:25:36;;;;;;;9.83;6.20;;;;;;;-1.55;52.21;101281.70;1811279;79;21069;-71
2021/03/11 08:28:13;;;;;;;9.15;4.40;;;;;;;-1.42;51.18;101284.53;1824376;77;21962;-71
2021/03/11 08:30:49;;;;;;;7.85;4.50;;;;;;;-1.32;49.64;101282.66;1848914;77;21125;-71
2021/03/11 08:33:26;;;;;;;7.60;3.75;;;;;;;-1.32;49.06;101286.09;1848669;77;21049;-71
2021/03/11 08:35:55;;;;;;;5.67;3.98;;;;;;;-1.29;47.51;101280.00;1802475;79;21055;-71
2021/03/11 08:38:32;;;;;;;9.40;4.30;;;;;;;-1.30;47.38;101276.56;1847805;77;21168;-71
2021/03/11 08:41:06;;;;;;;8.85;4.92;;;;;;;-1.40;46.93;101287.95;1849091;77;22805;-73
2021/03/11 08:43:42;;;;;;;9.30;4.60;;;;;;;-1.39;47.81;101274.11;1825141;77;21201;-74
2021/03/11 08:46:22;;;;;;;8.73;4.15;;;;;;;-1.31;47.89;101278.73;1814702;79;21394;-72
2021/03/11 08:49:00;;;;;;;7.55;4.50;;;;;;;-1.27;47.28;101273.91;1806042;77;21145;-72
2021/03/11 08:51:33;;;;;;;7.78;4.22;;;;;;;-1.29;47.00;101273.08;1745102;80;21349;-72
2021/03/11 08:54:11;;;;;;;;;;;;;;;-1.29;46.95;101280.00;1851786;77;22051;-71
2021/03/11 08:56:40;;;;;;;6.83;3.58;;;;;;;-1.16;46.17;101278.91;1798044;79;20427;-73
2021/03/11 08:59:12;;;;;;;10.70;5.97;;;;;;;-1.08;45.96;101272.30;1837220;77;21506;-72
2021/03/11 09:01:51;;;;;;;9.00;4.85;;;;;;;-1.05;45.08;101274.87;1849060;77;21465;-73
2021/03/11 09:04:30;;;;;;;6.20;3.85;;;;;;;-0.97;45.58;101278.16;1847500;77;21125;-72
2021/03/11 09:07:10;;;;;;;7.28;4.20;;;;;;;-0.79;45.33;101275.68;1823548;77;21153;-72
2021/03/11 09:09:49;;;;;;;8.05;4.58;;;;;;;-0.69;44.33;101270.73;1824560;77;21054;-72
2021/03/11 09:12:31;;;;;;;6.95;3.65;;;;;;;-0.64;44.73;101267.63;1787913;79;21091;-69
2021/03/11 09:15:00;;;;;;;5.90;3.37;;;;;;;-0.66;43.12;101270.70;1839694;77;21571;-71
2021/03/11 09:17:30;;;;;;;7.15;3.60;;;;;;;-0.68;42.91;101270.70;1846839;77;21105;-70
2021/03/11 09:20:06;;;;;;;5.72;3.17;;;;;;;-0.63;42.99;101273.23;1827994;77;22114;-69
2021/03/11 09:22:39;;;;;;;7.30;3.90;;;;;;;-0.55;43.11;101274.38;1821074;77;21086;-69
2021/03/11 09:25:14;;;;;;;9.93;3.85;;;;;;;-0.51;41.41;101269.53;1817670;77;21042;-71
2021/03/11 09:28:01;;;;;;;7.50;4.15;;;;;;;-0.56;41.79;101266.19;1819596;77;21106;-72
2021/03/11 09:30:36;;;;;;;7.45;3.20;;;;;;;-0.51;42.33;101260.45;1840525;77;21157;-73
2021/03/11 09:33:22;;;;;;;6.20;3.80;;;;;;;-0.35;41.06;101268.36;1835286;77;22050;-71
2021/03/11 09:35:52;;;;;;;7.17;3.47;;;;;;;-0.28;41.67;101262.61;1836658;77;21121;-73
2021/03/11 09:38:25;;;;;;;5.65;3.55;;;;;;;-0.11;41.44;101261.78;1848205;77;21254;-72
2021/03/11 09:40:56;;;;;;;4.97;3.35;;;;;;;0.01;41.32;101255.05;1822704;77;21104;-73
2021/03/11 09:43:29;;;;;;;5.83;3.20;;;;;;;0.20;40.58;101259.40;1821375;78;21673;-73
2021/03/11 09:46:17;;;;;;;4.95;3.00;;;;;;;0.25;39.82;101260.98;1821308;78;22053;-73
2021/03/11 09:48:50;;;;;;;5.58;3.22;;;;;;;0.30;39.73;101260.05;1819236;77;21065;-72
2021/03/11 09:51:30;;;;;;;7.43;3.27;;;;;;;0.33;38.96;101261.27;1756753;80;21164;-72
2021/03/11 09:54:00;;;;;;;7.40;3.75;;;;;;;0.30;39.30;101257.45;1765148;81;21733;-71
2021/03/11 09:56:31;;;;;;;7.08;3.50;;;;;;;0.37;39.19;101257.24;1832098;77;21116;-72
2021/03/11 09:59:07;;;;;;;5.00;3.45;;;;;;;0.54;39.69;101253.80;1848778;77;21930;-72
2021/03/11 10:01:48;;;;;;;4.22;2.50;;;;;;;0.78;39.65;101248.91;1840806;77;21189;-72
2021/03/11 10:04:29;;;;;;;6.15;2.60;;;;;;;1.03;38.94;101243.92;1829985;77;21173;-73
2021/03/11 10:07:02;;;;;;;5.87;2.70;;;;;;;1.19;37.55;101251.73;1838508;77;21045;-72
2021/03/11 10:09:42;;;;;;;5.77;3.43;;;;;;;1.23;37.29;101242.94;1849665;77;21159;-71
2021/03/11 10:12:12;;;;;;;6.53;3.00;;;;;;;1.29;37.61;101236.28;1848282;77;21139;-72
2021/03/11 10:14:42;;;;;;;5.28;3.25;;;;;;;1.44;37.40;101237.59;1806269;79;21135;-72
2021/03/11 10:17:19;;;;;;;6.33;3.02;;;;;;;1.49;36.36;101237.48;1848143;77;21073;-71
2021/03/11 10:19:49;;;;;;;4.83;3.12;;;;;;;1.37;36.55;101232.17;1838161;77;21034;-72
2021/03/11 10:22:17;;;;;;;9.30;3.70;;;;;;;1.30;36.72;101234.53;1775164;79;21387;-72
2021/03/11 10:24:51;;;;;;;5.70;3.40;;;;;;;1.30;36.94;101232.78;1826713;77;22058;-72
2021/03/11 10:27:31;;;;;;;4.83;3.45;;;;;;;1.30;37.40;101233.23;1847966;77;21149;-72
2021/03/11 10:30:27;;;;;;;7.22;3.92;;;;;;;1.51;38.09;101232.63;1812984;77;21137;-72
2021/03/11 10:33:01;;;;;;;7.03;4.00;;;;;;;1.67;36.75;101231.75;1815715;79;21089;-72
2021/03/11 10:35:38;;;;;;;5.70;3.52;;;;;;;1.82;36.72;101229.13;1840381;77;21142;-72
2021/03/11 10:38:17;;;;;;;5.60;3.40;;;;;;;1.98;36.85;101221.27;1832286;77;22428;-72
2021/03/11 10:40:45;;;;;;;7.22;3.50;;;;;;;2.20;36.04;101222.30;1849302;77;21057;-72
2021/03/11 10:43:21;;;;;;;9.68;4.70;;;;;;;2.36;35.88;101217.47;1837961;77;21106;-72
2021/03/11 10:45:49;;;;;;;8.53;4.62;;;;;;;2.39;35.21;101216.52;1830032;77;21185;-73
2021/03/11 10:48:16;;;;;;;7.60;4.70;;;;;;;2.30;35.68;101204.16;1849014;77;21311;-71
2021/03/11 10:50:47;;;;;;;5.08;3.10;;;;;;;2.39;34.64;101212.15;1833410;77;22061;-71
2021/03/11 10:53:16;;;;;;;6.05;3.47;;;;;;;2.39;34.40;101206.93;1845250;77;21053;-73
2021/03/11 10:55:45;;;;;;;6.65;4.35;;;;;;;2.28;33.96;101209.89;1819455;77;21064;-72
2021/03/11 10:58:24;;;;;;;8.93;4.65;;;;;;;2.11;34.36;101204.34;1827030;77;21043;-72
2021/03/11 11:01:25;;;;;;;10.85;4.25;;;;;;;1.95;34.99;101204.44;1835672;77;21089;-72
2021/03/11 11:03:54;;;;;;;8.58;3.90;;;;;;;1.97;35.26;101210.00;1821861;77;21845;-72
2021/03/11 11:06:23;;;;;;;8.75;3.75;;;;;;;2.04;34.53;101211.98;1765267;80;21178;-73
2021/03/11 11:08:50;;;;;;;7.80;4.70;;;;;;;2.04;35.26;101205.46;1763790;81;21561;-72
2021/03/11 11:11:19;;;;;;;6.35;3.55;;;;;;;2.13;35.05;101206.93;1774291;80;21169;-73
2021/03/11 11:13:47;;;;;;;7.12;3.72;;;;;;;2.21;34.27;101197.09;1832281;77;21062;-74
2021/03/11 11:16:14;;;;;;;7.15;4.30;;;;;;;2.37;33.68;101202.68;1804241;79;21910;-73
2021/03/11 11:18:43;;;;;;;7.62;3.47;;;;;;;2.58;34.67;101201.52;1842273;77;21249;-72
2021/03/11 11:21:11;;;;;;;5.08;3.42;;;;;;;2.91;34.24;101200.45;1804918;79;21102;-73
2021/03/11 11:23:39;;;;;;;7.10;3.30;;;;;;;3.30;34.70;101197.73;1836387;77;21030;-73
2021/03/11 11:26:06;;;;;;;9.10;3.20;;;;;;;3.66;32.88;101190.28;1840917;77;21022;-73
2021/03/11 11:28:33;;;;;;;5.58;2.72;;;;;;;3.90;32.72;101195.50;1848720;77;21585;-73
2021/03/11 11:31:01;;;;;;;3.85;2.58;;;;;;;4.02;30.84;101205.01;1848074;77;21176;-73
2021/03/11 11:33:29;;;;;;;5.60;2.62;;;;;;;3.86;29.82;101191.28;1846519;77;21589;-74
2021/03/11 11:35:56;;;;;;;4.42;2.80;;;;;;;3.58;30.27;101188.89;1841718;77;21202;-72